sensor_id;sensor_type;location;lat;lon;timestamp;P1;durP1;ratioP1;P2;durP2;ratioP2
65552;SDS011;52465;51.560;14.368;2023-01-28T00:02:18;8.88;;;8.18;;
65552;SDS011;52465;51.560;14.368;2023-01-28T00:04:45;10.15;;;9.10;;
65552;SDS011;52465;51.560;14.368;2023-01-28T00:07:12;9.70;;;8.80;;
65552;SDS011;52465;51.560;14.368;2023-01-28T00:09:38;9.35;;;8.52;;
65552;SDS011;52465;51.560;14.368;2023-01-28T00:12:06;9.43;;;8.57;;
65552;SDS011;52465;51.560;14.368;2023-01-28T00:14:32;10.68;;;9.57;;
65552;SDS011;52465;51.560;14.368;2023-01-28T00:16:57;9.25;;;8.52;;
65552;SDS011;52465;51.560;14.368;2023-01-28T00:19:23;9.55;;;8.75;;
65552;SDS011;52465;51.560;14.368;2023-01-28T00:21:48;9.77;;;8.88;;
65552;SDS011;52465;51.560;14.368;2023-01-28T00:24:14;9.32;;;8.48;;
65552;SDS011;52465;51.560;14.368;2023-01-28T00:26:40;9.10;;;8.27;;
65552;SDS011;52465;51.560;14.368;2023-01-28T00:29:06;9.68;;;8.73;;
65552;SDS011;52465;51.560;14.368;2023-01-28T00:31:31;9.65;;;8.73;;
65552;SDS011;52465;51.560;14.368;2023-01-28T00:33:59;9.35;;;8.60;;
65552;SDS011;52465;51.560;14.368;2023-01-28T00:36:28;10.10;;;9.10;;
65552;SDS011;52465;51.560;14.368;2023-01-28T00:38:57;10.65;;;9.25;;
65552;SDS011;52465;51.560;14.368;2023-01-28T00:41:24;9.73;;;8.80;;
65552;SDS011;52465;51.560;14.368;2023-01-28T00:43:52;10.07;;;9.07;;
65552;SDS011;52465;51.560;14.368;2023-01-28T00:46:19;9.00;;;8.15;;
65552;SDS011;52465;51.560;14.368;2023-01-28T00:48:46;9.07;;;8.38;;
65552;SDS011;52465;51.560;14.368;2023-01-28T00:51:13;9.27;;;8.43;;
65552;SDS011;52465;51.560;14.368;2023-01-28T00:53:41;10.30;;;9.23;;
65552;SDS011;52465;51.560;14.368;2023-01-28T00:56:07;9.77;;;8.77;;
65552;SDS011;52465;51.560;14.368;2023-01-28T00:58:37;13.38;;;9.27;;
65552;SDS011;52465;51.560;14.368;2023-01-28T01:01:09;10.30;;;9.23;;
65552;SDS011;52465;51.560;14.368;2023-01-28T01:03:37;9.60;;;8.80;;
65552;SDS011;52465;51.560;14.368;2023-01-28T01:06:03;9.57;;;8.77;;
65552;SDS011;52465;51.560;14.368;2023-01-28T01:08:28;8.73;;;8.10;;
65552;SDS011;52465;51.560;14.368;2023-01-28T01:13:29;9.50;;;8.63;;
65552;SDS011;52465;51.560;14.368;2023-01-28T01:16:03;9.32;;;8.52;;
65552;SDS011;52465;51.560;14.368;2023-01-28T01:18:34;9.95;;;8.98;;
65552;SDS011;52465;51.560;14.368;2023-01-28T01:21:01;9.30;;;8.50;;
65552;SDS011;52465;51.560;14.368;2023-01-28T01:23:28;9.48;;;8.73;;
65552;SDS011;52465;51.560;14.368;2023-01-28T01:25:54;9.43;;;8.60;;
65552;SDS011;52465;51.560;14.368;2023-01-28T01:28:20;9.23;;;8.50;;
65552;SDS011;52465;51.560;14.368;2023-01-28T01:30:49;9.60;;;8.80;;
65552;SDS011;52465;51.560;14.368;2023-01-28T01:33:15;9.75;;;8.60;;
65552;SDS011;52465;51.560;14.368;2023-01-28T01:35:41;10.30;;;8.60;;
65552;SDS011;52465;51.560;14.368;2023-01-28T01:38:07;8.65;;;8.00;;
65552;SDS011;52465;51.560;14.368;2023-01-28T01:40:33;9.32;;;8.63;;
65552;SDS011;52465;51.560;14.368;2023-01-28T01:42:58;9.98;;;9.05;;
65552;SDS011;52465;51.560;14.368;2023-01-28T01:45:24;9.23;;;8.48;;
65552;SDS011;52465;51.560;14.368;2023-01-28T01:47:59;9.57;;;8.80;;
65552;SDS011;52465;51.560;14.368;2023-01-28T01:50:41;9.23;;;8.43;;
65552;SDS011;52465;51.560;14.368;2023-01-28T01:53:15;9.30;;;8.52;;
65552;SDS011;52465;51.560;14.368;2023-01-28T01:55:47;9.88;;;8.98;;
65552;SDS011;52465;51.560;14.368;2023-01-28T01:58:16;8.98;;;8.27;;
65552;SDS011;52465;51.560;14.368;2023-01-28T02:00:43;9.60;;;8.70;;
65552;SDS011;52465;51.560;14.368;2023-01-28T02:03:10;9.20;;;8.45;;
65552;SDS011;52465;51.560;14.368;2023-01-28T02:05:36;10.70;;;9.35;;
65552;SDS011;52465;51.560;14.368;2023-01-28T02:08:03;8.85;;;8.23;;
65552;SDS011;52465;51.560;14.368;2023-01-28T02:13:34;8.77;;;8.07;;
65552;SDS011;52465;51.560;14.368;2023-01-28T02:16:03;9.43;;;8.52;;
65552;SDS011;52465;51.560;14.368;2023-01-28T02:18:30;8.75;;;8.05;;
65552;SDS011;52465;51.560;14.368;2023-01-28T02:21:03;9.77;;;8.98;;
65552;SDS011;52465;51.560;14.368;2023-01-28T02:26:54;9.43;;;8.52;;
65552;SDS011;52465;51.560;14.368;2023-01-28T02:29:45;8.95;;;8.18;;
65552;SDS011;52465;51.560;14.368;2023-01-28T02:32:24;8.52;;;7.90;;
65552;SDS011;52465;51.560;14.368;2023-01-28T02:35:11;8.85;;;8.15;;
65552;SDS011;52465;51.560;14.368;2023-01-28T02:37:52;10.07;;;9.00;;
65552;SDS011;52465;51.560;14.368;2023-01-28T02:40:24;8.95;;;8.15;;
65552;SDS011;52465;51.560;14.368;2023-01-28T02:42:54;9.50;;;8.73;;
65552;SDS011;52465;51.560;14.368;2023-01-28T02:45:21;9.73;;;8.82;;
65552;SDS011;52465;51.560;14.368;2023-01-28T02:48:06;9.27;;;8.48;;
65552;SDS011;52465;51.560;14.368;2023-01-28T02:50:38;9.48;;;8.55;;
65552;SDS011;52465;51.560;14.368;2023-01-28T02:53:32;9.48;;;8.68;;
65552;SDS011;52465;51.560;14.368;2023-01-28T02:58:58;9.18;;;8.57;;
65552;SDS011;52465;51.560;14.368;2023-01-28T03:01:55;8.85;;;8.25;;
65552;SDS011;52465;51.560;14.368;2023-01-28T03:07:14;9.40;;;8.50;;
65552;SDS011;52465;51.560;14.368;2023-01-28T03:09:45;9.45;;;8.65;;
65552;SDS011;52465;51.560;14.368;2023-01-28T03:12:18;9.83;;;8.83;;
65552;SDS011;52465;51.560;14.368;2023-01-28T03:18:10;9.32;;;8.60;;
65552;SDS011;52465;51.560;14.368;2023-01-28T03:27:02;9.32;;;8.27;;
65552;SDS011;52465;51.560;14.368;2023-01-28T03:29:53;10.40;;;8.38;;
65552;SDS011;52465;51.560;14.368;2023-01-28T03:32:41;9.43;;;8.52;;
65552;SDS011;52465;51.560;14.368;2023-01-28T03:35:27;9.85;;;8.93;;
65552;SDS011;52465;51.560;14.368;2023-01-28T03:38:13;9.15;;;8.45;;
65552;SDS011;52465;51.560;14.368;2023-01-28T03:43:15;9.18;;;8.48;;
65552;SDS011;52465;51.560;14.368;2023-01-28T03:45:41;9.48;;;8.77;;
65552;SDS011;52465;51.560;14.368;2023-01-28T03:48:06;9.55;;;8.75;;
65552;SDS011;52465;51.560;14.368;2023-01-28T03:50:34;9.77;;;8.75;;
65552;SDS011;52465;51.560;14.368;2023-01-28T03:53:03;9.70;;;8.65;;
65552;SDS011;52465;51.560;14.368;2023-01-28T03:55:38;9.80;;;8.98;;
65552;SDS011;52465;51.560;14.368;2023-01-28T03:58:04;9.25;;;8.45;;
65552;SDS011;52465;51.560;14.368;2023-01-28T04:00:32;9.23;;;8.52;;
65552;SDS011;52465;51.560;14.368;2023-01-28T04:03:03;9.32;;;8.55;;
65552;SDS011;52465;51.560;14.368;2023-01-28T04:05:28;9.30;;;8.45;;
65552;SDS011;52465;51.560;14.368;2023-01-28T04:07:54;10.27;;;9.38;;
65552;SDS011;52465;51.560;14.368;2023-01-28T04:10:20;9.07;;;8.30;;
65552;SDS011;52465;51.560;14.368;2023-01-28T04:12:46;10.70;;;9.30;;
65552;SDS011;52465;51.560;14.368;2023-01-28T04:15:14;9.73;;;8.95;;
65552;SDS011;52465;51.560;14.368;2023-01-28T04:17:43;8.88;;;8.18;;
65552;SDS011;52465;51.560;14.368;2023-01-28T04:20:10;8.98;;;8.32;;
65552;SDS011;52465;51.560;14.368;2023-01-28T04:22:36;9.45;;;8.55;;
65552;SDS011;52465;51.560;14.368;2023-01-28T04:25:02;9.32;;;8.52;;
65552;SDS011;52465;51.560;14.368;2023-01-28T04:27:27;9.13;;;8.32;;
65552;SDS011;52465;51.560;14.368;2023-01-28T04:29:53;9.25;;;8.40;;
65552;SDS011;52465;51.560;14.368;2023-01-28T04:32:21;9.50;;;8.70;;
65552;SDS011;52465;51.560;14.368;2023-01-28T04:34:49;10.10;;;9.10;;
65552;SDS011;52465;51.560;14.368;2023-01-28T04:37:15;8.90;;;8.30;;
65552;SDS011;52465;51.560;14.368;2023-01-28T04:39:41;9.02;;;8.25;;
65552;SDS011;52465;51.560;14.368;2023-01-28T04:42:06;9.88;;;8.90;;
65552;SDS011;52465;51.560;14.368;2023-01-28T04:44:32;9.15;;;8.35;;
65552;SDS011;52465;51.560;14.368;2023-01-28T04:46:57;9.57;;;8.77;;
65552;SDS011;52465;51.560;14.368;2023-01-28T04:49:23;9.20;;;8.30;;
65552;SDS011;52465;51.560;14.368;2023-01-28T04:51:49;9.02;;;8.32;;
65552;SDS011;52465;51.560;14.368;2023-01-28T04:54:15;9.48;;;8.60;;
65552;SDS011;52465;51.560;14.368;2023-01-28T04:56:43;8.90;;;8.23;;
65552;SDS011;52465;51.560;14.368;2023-01-28T04:59:09;9.95;;;8.98;;
65552;SDS011;52465;51.560;14.368;2023-01-28T05:01:34;9.60;;;8.75;;
65552;SDS011;52465;51.560;14.368;2023-01-28T05:04:00;9.65;;;8.50;;
65552;SDS011;52465;51.560;14.368;2023-01-28T05:06:29;9.45;;;8.77;;
65552;SDS011;52465;51.560;14.368;2023-01-28T05:08:55;10.35;;;9.20;;
65552;SDS011;52465;51.560;14.368;2023-01-28T05:11:22;9.80;;;9.05;;
65552;SDS011;52465;51.560;14.368;2023-01-28T05:13:48;9.55;;;8.75;;
65552;SDS011;52465;51.560;14.368;2023-01-28T05:16:13;9.82;;;9.02;;
65552;SDS011;52465;51.560;14.368;2023-01-28T05:18:39;9.23;;;8.43;;
65552;SDS011;52465;51.560;14.368;2023-01-28T05:21:04;9.05;;;8.35;;
65552;SDS011;52465;51.560;14.368;2023-01-28T05:23:30;9.45;;;8.65;;
65552;SDS011;52465;51.560;14.368;2023-01-28T05:25:56;9.73;;;8.73;;
65552;SDS011;52465;51.560;14.368;2023-01-28T05:28:22;8.88;;;8.18;;
65552;SDS011;52465;51.560;14.368;2023-01-28T05:30:51;8.77;;;7.97;;
65552;SDS011;52465;51.560;14.368;2023-01-28T05:33:16;9.23;;;8.52;;
65552;SDS011;52465;51.560;14.368;2023-01-28T05:35:42;8.55;;;7.97;;
65552;SDS011;52465;51.560;14.368;2023-01-28T05:38:08;9.55;;;8.75;;
65552;SDS011;52465;51.560;14.368;2023-01-28T05:40:34;8.77;;;8.05;;
65552;SDS011;52465;51.560;14.368;2023-01-28T05:42:59;9.48;;;8.57;;
65552;SDS011;52465;51.560;14.368;2023-01-28T05:45:24;9.52;;;8.82;;
65552;SDS011;52465;51.560;14.368;2023-01-28T05:47:50;9.55;;;8.73;;
65552;SDS011;52465;51.560;14.368;2023-01-28T05:50:15;8.80;;;8.18;;
65552;SDS011;52465;51.560;14.368;2023-01-28T05:52:41;9.20;;;8.40;;
65552;SDS011;52465;51.560;14.368;2023-01-28T05:55:07;9.07;;;8.32;;
65552;SDS011;52465;51.560;14.368;2023-01-28T05:57:33;9.10;;;8.40;;
65552;SDS011;52465;51.560;14.368;2023-01-28T05:59:59;8.82;;;8.13;;
65552;SDS011;52465;51.560;14.368;2023-01-28T06:02:25;9.05;;;8.15;;
65552;SDS011;52465;51.560;14.368;2023-01-28T06:04:50;9.20;;;8.60;;
65552;SDS011;52465;51.560;14.368;2023-01-28T06:07:16;9.00;;;8.40;;
65552;SDS011;52465;51.560;14.368;2023-01-28T06:09:44;8.57;;;7.97;;
65552;SDS011;52465;51.560;14.368;2023-01-28T06:12:14;9.07;;;8.48;;
65552;SDS011;52465;51.560;14.368;2023-01-28T06:14:40;9.52;;;8.82;;
65552;SDS011;52465;51.560;14.368;2023-01-28T06:17:10;8.65;;;7.93;;
65552;SDS011;52465;51.560;14.368;2023-01-28T06:19:35;8.60;;;7.90;;
65552;SDS011;52465;51.560;14.368;2023-01-28T06:22:01;8.40;;;7.85;;
65552;SDS011;52465;51.560;14.368;2023-01-28T06:24:26;8.77;;;7.97;;
65552;SDS011;52465;51.560;14.368;2023-01-28T06:26:52;8.63;;;8.02;;
65552;SDS011;52465;51.560;14.368;2023-01-28T06:29:17;8.85;;;8.20;;
65552;SDS011;52465;51.560;14.368;2023-01-28T06:31:46;8.82;;;8.18;;
65552;SDS011;52465;51.560;14.368;2023-01-28T06:34:15;8.77;;;8.18;;
65552;SDS011;52465;51.560;14.368;2023-01-28T06:36:41;9.15;;;8.32;;
65552;SDS011;52465;51.560;14.368;2023-01-28T06:39:09;9.30;;;8.50;;
65552;SDS011;52465;51.560;14.368;2023-01-28T06:41:35;8.63;;;8.02;;
65552;SDS011;52465;51.560;14.368;2023-01-28T06:44:01;8.60;;;7.90;;
65552;SDS011;52465;51.560;14.368;2023-01-28T06:46:27;9.10;;;8.38;;
65552;SDS011;52465;51.560;14.368;2023-01-28T06:48:53;9.32;;;8.60;;
65552;SDS011;52465;51.560;14.368;2023-01-28T06:51:18;9.30;;;8.45;;
65552;SDS011;52465;51.560;14.368;2023-01-28T06:53:44;8.40;;;7.80;;
65552;SDS011;52465;51.560;14.368;2023-01-28T06:56:09;9.00;;;8.27;;
65552;SDS011;52465;51.560;14.368;2023-01-28T06:58:39;9.32;;;8.60;;
65552;SDS011;52465;51.560;14.368;2023-01-28T07:01:04;8.98;;;8.38;;
65552;SDS011;52465;51.560;14.368;2023-01-28T07:03:30;8.60;;;7.90;;
65552;SDS011;52465;51.560;14.368;2023-01-28T07:05:56;8.95;;;8.23;;
65552;SDS011;52465;51.560;14.368;2023-01-28T07:08:24;9.40;;;8.63;;
65552;SDS011;52465;51.560;14.368;2023-01-28T07:10:49;9.13;;;8.43;;
65552;SDS011;52465;51.560;14.368;2023-01-28T07:13:16;8.93;;;8.23;;
65552;SDS011;52465;51.560;14.368;2023-01-28T07:15:42;8.75;;;8.15;;
65552;SDS011;52465;51.560;14.368;2023-01-28T07:18:07;9.15;;;8.45;;
65552;SDS011;52465;51.560;14.368;2023-01-28T07:20:36;8.98;;;8.30;;
65552;SDS011;52465;51.560;14.368;2023-01-28T07:23:04;9.23;;;8.52;;
65552;SDS011;52465;51.560;14.368;2023-01-28T07:25:29;8.95;;;8.25;;
65552;SDS011;52465;51.560;14.368;2023-01-28T07:27:55;9.00;;;8.38;;
65552;SDS011;52465;51.560;14.368;2023-01-28T07:30:21;8.90;;;8.23;;
65552;SDS011;52465;51.560;14.368;2023-01-28T07:32:54;8.32;;;7.57;;
65552;SDS011;52465;51.560;14.368;2023-01-28T07:35:20;9.05;;;8.25;;
65552;SDS011;52465;51.560;14.368;2023-01-28T07:37:51;8.60;;;7.93;;
65552;SDS011;52465;51.560;14.368;2023-01-28T07:40:17;8.98;;;8.30;;
65552;SDS011;52465;51.560;14.368;2023-01-28T07:42:43;8.77;;;8.15;;
65552;SDS011;52465;51.560;14.368;2023-01-28T07:45:08;9.38;;;8.68;;
65552;SDS011;52465;51.560;14.368;2023-01-28T07:47:36;8.73;;;8.02;;
65552;SDS011;52465;51.560;14.368;2023-01-28T07:50:01;9.02;;;8.23;;
65552;SDS011;52465;51.560;14.368;2023-01-28T07:52:27;9.02;;;8.40;;
65552;SDS011;52465;51.560;14.368;2023-01-28T07:54:52;9.20;;;8.50;;
65552;SDS011;52465;51.560;14.368;2023-01-28T07:57:25;8.10;;;7.60;;
65552;SDS011;52465;51.560;14.368;2023-01-28T07:59:57;8.35;;;7.80;;
65552;SDS011;52465;51.560;14.368;2023-01-28T08:02:24;8.75;;;8.10;;
65552;SDS011;52465;51.560;14.368;2023-01-28T08:04:52;8.73;;;8.05;;
65552;SDS011;52465;51.560;14.368;2023-01-28T08:07:21;10.18;;;8.10;;
65552;SDS011;52465;51.560;14.368;2023-01-28T08:09:46;9.32;;;8.52;;
65552;SDS011;52465;51.560;14.368;2023-01-28T08:12:12;8.80;;;8.00;;
65552;SDS011;52465;51.560;14.368;2023-01-28T08:14:40;8.93;;;8.27;;
65552;SDS011;52465;51.560;14.368;2023-01-28T08:17:05;8.98;;;8.32;;
65552;SDS011;52465;51.560;14.368;2023-01-28T08:19:31;9.35;;;8.65;;
65552;SDS011;52465;51.560;14.368;2023-01-28T08:21:56;9.30;;;8.50;;
65552;SDS011;52465;51.560;14.368;2023-01-28T08:24:22;9.18;;;8.48;;
65552;SDS011;52465;51.560;14.368;2023-01-28T08:26:47;8.32;;;7.63;;
65552;SDS011;52465;51.560;14.368;2023-01-28T08:29:13;8.50;;;7.90;;
65552;SDS011;52465;51.560;14.368;2023-01-28T08:31:39;8.93;;;8.23;;
65552;SDS011;52465;51.560;14.368;2023-01-28T08:34:04;8.82;;;8.13;;
65552;SDS011;52465;51.560;14.368;2023-01-28T08:36:30;8.15;;;7.60;;
65552;SDS011;52465;51.560;14.368;2023-01-28T08:38:56;8.35;;;7.82;;
65552;SDS011;52465;51.560;14.368;2023-01-28T08:41:21;8.68;;;8.07;;
65552;SDS011;52465;51.560;14.368;2023-01-28T08:43:48;8.90;;;8.10;;
65552;SDS011;52465;51.560;14.368;2023-01-28T08:46:16;9.18;;;8.35;;
65552;SDS011;52465;51.560;14.368;2023-01-28T08:48:42;9.18;;;8.38;;
65552;SDS011;52465;51.560;14.368;2023-01-28T08:51:08;8.70;;;8.07;;
65552;SDS011;52465;51.560;14.368;2023-01-28T08:53:37;8.90;;;8.30;;
65552;SDS011;52465;51.560;14.368;2023-01-28T08:56:04;8.30;;;7.70;;
65552;SDS011;52465;51.560;14.368;2023-01-28T08:58:30;8.13;;;7.63;;
65552;SDS011;52465;51.560;14.368;2023-01-28T09:00:56;8.77;;;8.10;;
65552;SDS011;52465;51.560;14.368;2023-01-28T09:03:22;8.70;;;8.00;;
65552;SDS011;52465;51.560;14.368;2023-01-28T09:05:48;8.85;;;8.25;;
65552;SDS011;52465;51.560;14.368;2023-01-28T09:08:15;8.80;;;8.18;;
65552;SDS011;52465;51.560;14.368;2023-01-28T09:10:41;8.50;;;7.90;;
65552;SDS011;52465;51.560;14.368;2023-01-28T09:13:09;8.90;;;8.25;;
65552;SDS011;52465;51.560;14.368;2023-01-28T09:15:37;8.27;;;7.78;;
65552;SDS011;52465;51.560;14.368;2023-01-28T09:18:03;8.80;;;8.07;;
65552;SDS011;52465;51.560;14.368;2023-01-28T09:20:28;8.60;;;8.00;;
65552;SDS011;52465;51.560;14.368;2023-01-28T09:22:54;8.82;;;8.13;;
65552;SDS011;52465;51.560;14.368;2023-01-28T09:25:20;8.35;;;7.75;;
65552;SDS011;52465;51.560;14.368;2023-01-28T09:27:45;8.73;;;8.02;;
65552;SDS011;52465;51.560;14.368;2023-01-28T09:30:11;9.15;;;8.45;;
65552;SDS011;52465;51.560;14.368;2023-01-28T09:32:38;8.38;;;7.78;;
65552;SDS011;52465;51.560;14.368;2023-01-28T09:35:04;8.15;;;7.65;;
65552;SDS011;52465;51.560;14.368;2023-01-28T09:37:30;8.50;;;7.80;;
65552;SDS011;52465;51.560;14.368;2023-01-28T09:39:55;8.43;;;7.82;;
65552;SDS011;52465;51.560;14.368;2023-01-28T09:47:51;8.65;;;7.97;;
65552;SDS011;52465;51.560;14.368;2023-01-28T09:50:25;8.35;;;7.85;;
65552;SDS011;52465;51.560;14.368;2023-01-28T09:52:56;8.32;;;7.63;;
65552;SDS011;52465;51.560;14.368;2023-01-28T09:55:35;8.20;;;7.70;;
65552;SDS011;52465;51.560;14.368;2023-01-28T09:58:09;8.43;;;7.82;;
65552;SDS011;52465;51.560;14.368;2023-01-28T10:06:21;8.32;;;7.68;;
65552;SDS011;52465;51.560;14.368;2023-01-28T10:14:25;8.00;;;7.40;;
65552;SDS011;52465;51.560;14.368;2023-01-28T10:19:57;8.80;;;8.00;;
65552;SDS011;52465;51.560;14.368;2023-01-28T10:22:34;7.95;;;7.45;;
65552;SDS011;52465;51.560;14.368;2023-01-28T10:25:05;8.50;;;7.90;;
65552;SDS011;52465;51.560;14.368;2023-01-28T10:27:41;8.18;;;7.47;;
65552;SDS011;52465;51.560;14.368;2023-01-28T10:30:15;8.65;;;7.95;;
65552;SDS011;52465;51.560;14.368;2023-01-28T10:33:16;9.50;;;8.75;;
65552;SDS011;52465;51.560;14.368;2023-01-28T10:35:46;7.90;;;7.40;;
65552;SDS011;52465;51.560;14.368;2023-01-28T10:38:15;7.85;;;7.35;;
65552;SDS011;52465;51.560;14.368;2023-01-28T10:40:44;7.90;;;7.40;;
65552;SDS011;52465;51.560;14.368;2023-01-28T10:43:14;7.95;;;7.45;;
65552;SDS011;52465;51.560;14.368;2023-01-28T10:48:20;8.10;;;7.60;;
65552;SDS011;52465;51.560;14.368;2023-01-28T10:50:51;8.32;;;7.80;;
65552;SDS011;52465;51.560;14.368;2023-01-28T10:53:32;8.27;;;7.57;;
65552;SDS011;52465;51.560;14.368;2023-01-28T10:56:28;8.15;;;7.65;;
65552;SDS011;52465;51.560;14.368;2023-01-28T10:58:57;8.63;;;7.88;;
65552;SDS011;52465;51.560;14.368;2023-01-28T11:01:39;8.15;;;7.65;;
65552;SDS011;52465;51.560;14.368;2023-01-28T11:04:14;8.18;;;7.68;;
65552;SDS011;52465;51.560;14.368;2023-01-28T11:06:50;8.57;;;7.85;;
65552;SDS011;52465;51.560;14.368;2023-01-28T11:09:43;8.35;;;7.60;;
65552;SDS011;52465;51.560;14.368;2023-01-28T11:12:12;8.18;;;7.57;;
65552;SDS011;52465;51.560;14.368;2023-01-28T11:15:00;8.32;;;7.80;;
65552;SDS011;52465;51.560;14.368;2023-01-28T11:17:29;8.30;;;7.60;;
65552;SDS011;52465;51.560;14.368;2023-01-28T11:20:00;8.07;;;7.47;;
65552;SDS011;52465;51.560;14.368;2023-01-28T11:22:58;8.73;;;8.02;;
65552;SDS011;52465;51.560;14.368;2023-01-28T11:25:27;8.75;;;7.85;;
65552;SDS011;52465;51.560;14.368;2023-01-28T11:27:53;8.00;;;7.47;;
65552;SDS011;52465;51.560;14.368;2023-01-28T11:30:21;11.52;;;7.68;;
65552;SDS011;52465;51.560;14.368;2023-01-28T11:33:12;7.65;;;7.15;;
65552;SDS011;52465;51.560;14.368;2023-01-28T11:35:51;7.35;;;6.85;;
65552;SDS011;52465;51.560;14.368;2023-01-28T11:41:18;7.80;;;7.20;;
65552;SDS011;52465;51.560;14.368;2023-01-28T11:43:50;7.95;;;7.25;;
65552;SDS011;52465;51.560;14.368;2023-01-28T11:51:42;8.50;;;7.85;;
65552;SDS011;52465;51.560;14.368;2023-01-28T11:54:49;7.70;;;7.20;;
65552;SDS011;52465;51.560;14.368;2023-01-28T11:57:18;8.18;;;7.57;;
65552;SDS011;52465;51.560;14.368;2023-01-28T12:08:15;8.20;;;7.60;;
65552;SDS011;52465;51.560;14.368;2023-01-28T12:11:17;8.77;;;8.18;;
65552;SDS011;52465;51.560;14.368;2023-01-28T12:16:57;7.95;;;7.45;;
65552;SDS011;52465;51.560;14.368;2023-01-28T12:28:02;8.77;;;8.18;;
65552;SDS011;52465;51.560;14.368;2023-01-28T12:41:21;8.80;;;8.02;;
65552;SDS011;52465;51.560;14.368;2023-01-28T12:43:56;8.27;;;7.50;;
65552;SDS011;52465;51.560;14.368;2023-01-28T12:46:47;8.43;;;7.88;;
65552;SDS011;52465;51.560;14.368;2023-01-28T12:52:13;8.38;;;7.72;;
65552;SDS011;52465;51.560;14.368;2023-01-28T12:57:25;8.80;;;8.18;;
65552;SDS011;52465;51.560;14.368;2023-01-28T12:59:56;8.30;;;7.70;;
65552;SDS011;52465;51.560;14.368;2023-01-28T13:02:30;8.48;;;7.93;;
65552;SDS011;52465;51.560;14.368;2023-01-28T13:05:07;8.63;;;7.93;;
65552;SDS011;52465;51.560;14.368;2023-01-28T13:07:46;7.95;;;7.45;;
65552;SDS011;52465;51.560;14.368;2023-01-28T13:12:51;8.25;;;7.75;;
65552;SDS011;52465;51.560;14.368;2023-01-28T13:15:18;9.10;;;8.30;;
65552;SDS011;52465;51.560;14.368;2023-01-28T13:20:28;8.18;;;7.65;;
65552;SDS011;52465;51.560;14.368;2023-01-28T13:23:03;8.40;;;7.80;;
65552;SDS011;52465;51.560;14.368;2023-01-28T13:28:45;8.93;;;8.13;;
65552;SDS011;52465;51.560;14.368;2023-01-28T13:31:15;8.20;;;7.70;;
65552;SDS011;52465;51.560;14.368;2023-01-28T13:33:45;9.10;;;8.40;;
65552;SDS011;52465;51.560;14.368;2023-01-28T13:36:23;8.23;;;7.72;;
65552;SDS011;52465;51.560;14.368;2023-01-28T13:41:39;8.50;;;7.93;;
65552;SDS011;52465;51.560;14.368;2023-01-28T13:46:45;8.85;;;8.25;;
65552;SDS011;52465;51.560;14.368;2023-01-28T13:49:13;8.60;;;8.07;;
65552;SDS011;52465;51.560;14.368;2023-01-28T13:54:35;8.27;;;7.72;;
65552;SDS011;52465;51.560;14.368;2023-01-28T13:57:09;8.73;;;8.13;;
65552;SDS011;52465;51.560;14.368;2023-01-28T14:08:52;8.00;;;7.47;;
65552;SDS011;52465;51.560;14.368;2023-01-28T14:14:35;8.23;;;7.72;;
65552;SDS011;52465;51.560;14.368;2023-01-28T14:17:13;8.48;;;7.85;;
65552;SDS011;52465;51.560;14.368;2023-01-28T14:20:00;8.38;;;7.78;;
65552;SDS011;52465;51.560;14.368;2023-01-28T14:22:29;8.10;;;7.63;;
65552;SDS011;52465;51.560;14.368;2023-01-28T14:24:55;8.70;;;8.00;;
65552;SDS011;52465;51.560;14.368;2023-01-28T14:27:31;8.52;;;7.93;;
65552;SDS011;52465;51.560;14.368;2023-01-28T14:32:50;8.00;;;7.47;;
65552;SDS011;52465;51.560;14.368;2023-01-28T14:35:29;8.93;;;8.23;;
65552;SDS011;52465;51.560;14.368;2023-01-28T14:37:57;8.55;;;7.80;;
65552;SDS011;52465;51.560;14.368;2023-01-28T14:40:31;8.60;;;8.00;;
65552;SDS011;52465;51.560;14.368;2023-01-28T14:43:00;8.25;;;7.68;;
65552;SDS011;52465;51.560;14.368;2023-01-28T14:45:36;8.60;;;8.02;;
65552;SDS011;52465;51.560;14.368;2023-01-28T14:48:47;8.32;;;7.82;;
65552;SDS011;52465;51.560;14.368;2023-01-28T14:51:32;8.52;;;8.02;;
65552;SDS011;52465;51.560;14.368;2023-01-28T14:54:34;8.05;;;7.55;;
65552;SDS011;52465;51.560;14.368;2023-01-28T14:59:59;8.45;;;7.88;;
65552;SDS011;52465;51.560;14.368;2023-01-28T15:02:27;8.02;;;7.38;;
65552;SDS011;52465;51.560;14.368;2023-01-28T15:05:05;8.50;;;7.90;;
65552;SDS011;52465;51.560;14.368;2023-01-28T15:07:53;8.45;;;7.85;;
65552;SDS011;52465;51.560;14.368;2023-01-28T15:10:27;8.50;;;8.00;;
65552;SDS011;52465;51.560;14.368;2023-01-28T15:13:04;8.25;;;7.65;;
65552;SDS011;52465;51.560;14.368;2023-01-28T15:15:58;7.80;;;7.40;;
65552;SDS011;52465;51.560;14.368;2023-01-28T15:18:29;8.27;;;7.78;;
65552;SDS011;52465;51.560;14.368;2023-01-28T15:21:01;7.85;;;7.35;;
65552;SDS011;52465;51.560;14.368;2023-01-28T15:23:35;8.25;;;7.65;;
65552;SDS011;52465;51.560;14.368;2023-01-28T15:26:12;8.68;;;8.13;;
65552;SDS011;52465;51.560;14.368;2023-01-28T15:28:42;8.02;;;7.50;;
65552;SDS011;52465;51.560;14.368;2023-01-28T15:31:22;8.40;;;7.90;;
65552;SDS011;52465;51.560;14.368;2023-01-28T15:36:49;8.02;;;7.53;;
65552;SDS011;52465;51.560;14.368;2023-01-28T15:39:16;8.60;;;7.88;;
65552;SDS011;52465;51.560;14.368;2023-01-28T15:41:46;7.75;;;7.25;;
65552;SDS011;52465;51.560;14.368;2023-01-28T15:44:17;7.90;;;7.47;;
65552;SDS011;52465;51.560;14.368;2023-01-28T15:49:52;7.75;;;7.25;;
65552;SDS011;52465;51.560;14.368;2023-01-28T15:52:20;8.57;;;7.97;;
65552;SDS011;52465;51.560;14.368;2023-01-28T15:57:55;8.13;;;7.43;;
65552;SDS011;52465;51.560;14.368;2023-01-28T16:00:28;8.15;;;7.55;;
65552;SDS011;52465;51.560;14.368;2023-01-28T16:02:57;7.85;;;7.32;;
65552;SDS011;52465;51.560;14.368;2023-01-28T16:05:59;8.27;;;7.78;;
65552;SDS011;52465;51.560;14.368;2023-01-28T16:08:33;8.48;;;7.90;;
65552;SDS011;52465;51.560;14.368;2023-01-28T16:10:59;8.45;;;7.75;;
65552;SDS011;52465;51.560;14.368;2023-01-28T16:13:26;8.30;;;7.68;;
65552;SDS011;52465;51.560;14.368;2023-01-28T16:15:58;8.45;;;7.95;;
65552;SDS011;52465;51.560;14.368;2023-01-28T16:18:43;8.23;;;7.70;;
65552;SDS011;52465;51.560;14.368;2023-01-28T16:21:20;8.93;;;8.18;;
65552;SDS011;52465;51.560;14.368;2023-01-28T16:23:52;8.05;;;7.57;;
65552;SDS011;52465;51.560;14.368;2023-01-28T16:26:28;7.90;;;7.30;;
65552;SDS011;52465;51.560;14.368;2023-01-28T16:28:55;8.18;;;7.60;;
65552;SDS011;52465;51.560;14.368;2023-01-28T16:31:21;8.45;;;7.95;;
65552;SDS011;52465;51.560;14.368;2023-01-28T16:33:47;8.57;;;7.93;;
65552;SDS011;52465;51.560;14.368;2023-01-28T16:36:15;8.27;;;7.65;;
65552;SDS011;52465;51.560;14.368;2023-01-28T16:38:43;8.05;;;7.55;;
65552;SDS011;52465;51.560;14.368;2023-01-28T16:41:11;8.23;;;7.72;;
65552;SDS011;52465;51.560;14.368;2023-01-28T16:43:39;8.55;;;8.05;;
65552;SDS011;52465;51.560;14.368;2023-01-28T16:46:08;8.23;;;7.70;;
65552;SDS011;52465;51.560;14.368;2023-01-28T16:48:35;8.77;;;8.15;;
65552;SDS011;52465;51.560;14.368;2023-01-28T16:51:01;8.25;;;7.75;;
65552;SDS011;52465;51.560;14.368;2023-01-28T16:53:31;8.15;;;7.65;;
65552;SDS011;52465;51.560;14.368;2023-01-28T16:56:01;8.50;;;7.90;;
65552;SDS011;52465;51.560;14.368;2023-01-28T16:58:26;8.05;;;7.60;;
65552;SDS011;52465;51.560;14.368;2023-01-28T17:00:52;8.18;;;7.68;;
65552;SDS011;52465;51.560;14.368;2023-01-28T17:03:21;8.90;;;8.40;;
65552;SDS011;52465;51.560;14.368;2023-01-28T17:05:47;7.82;;;7.22;;
65552;SDS011;52465;51.560;14.368;2023-01-28T17:08:13;8.82;;;8.23;;
65552;SDS011;52465;51.560;14.368;2023-01-28T17:10:39;8.93;;;8.32;;